SWR805 LOWS-LSZH

Flight info

Callsign SWR805
Flight time 0h 41m
Altitude 24000
Route TRAUN L856 NEGRA
Aircraft RJ1H/M-SDFGIRWY/LB1

Departure

Time 2026-05-05 12:15
Airport Salzburg Airport (LOWS)

Arrival

Time 2026-05-05 12:56
Airport Zürich Airport (LSZH)
Time Latitude Longitude Altitude Speed Heading
2026-05-05 11:07 47.79144 12.99927 1420 ft 0 kts 281°
2026-05-05 12:09 47.79146 12.99921 1420 ft 2 kts 313°
2026-05-05 12:10 47.79160 12.99940 1420 ft 6 kts 80°
2026-05-05 12:10 47.79153 13.00017 1420 ft 9 kts 127°
2026-05-05 12:10 47.79093 13.00068 1420 ft 11 kts 156°
2026-05-05 12:10 47.79017 13.00117 1420 ft 13 kts 156°
2026-05-05 12:11 47.78956 13.00199 1419 ft 13 kts 97°
2026-05-05 12:11 47.78952 13.00335 1419 ft 13 kts 98°
2026-05-05 12:11 47.78882 13.00413 1419 ft 14 kts 155°
2026-05-05 12:11 47.78793 13.00467 1419 ft 14 kts 156°
2026-05-05 12:12 47.78702 13.00526 1422 ft 14 kts 157°
2026-05-05 12:12 47.78609 13.00584 1420 ft 15 kts 157°
2026-05-05 12:12 47.78513 13.00646 1419 ft 15 kts 156°
2026-05-05 12:12 47.78414 13.00710 1422 ft 16 kts 157°
2026-05-05 12:13 47.78312 13.00773 1422 ft 16 kts 157°
2026-05-05 12:13 47.78212 13.00852 1419 ft 17 kts 136°
2026-05-05 12:13 47.78194 13.01011 1421 ft 17 kts 69°
2026-05-05 12:13 47.78279 13.01059 1420 ft 15 kts 337°
2026-05-05 12:14 47.78295 13.01048 1418 ft 0 kts 336°
2026-05-05 12:14 47.78452 13.00949 1420 ft 61 kts 337°
2026-05-05 12:14 47.79051 13.00573 1421 ft 123 kts 338°
2026-05-05 12:14 47.79933 13.00008 1671 ft 145 kts 338°
2026-05-05 12:15 47.80858 12.99395 2292 ft 145 kts 338°
2026-05-05 12:15 47.81759 12.98730 2964 ft 147 kts 333°
2026-05-05 12:15 47.82582 12.97706 3419 ft 165 kts 304°
2026-05-05 12:15 47.83084 12.96173 4151 ft 160 kts 295°
2026-05-05 12:16 47.83691 12.94713 4708 ft 172 kts 305°
2026-05-05 12:16 47.84347 12.93214 5328 ft 176 kts 302°
2026-05-05 12:16 47.85010 12.91573 5595 ft 191 kts 300°
2026-05-05 12:16 47.85688 12.89822 5983 ft 198 kts 298°
2026-05-05 12:17 47.86376 12.88020 6385 ft 202 kts 298°
2026-05-05 12:17 47.87077 12.86208 6781 ft 202 kts 297°
2026-05-05 12:17 47.87785 12.84359 7078 ft 213 kts 297°
2026-05-05 12:17 47.88545 12.82347 7212 ft 239 kts 297°
2026-05-05 12:18 47.89406 12.80059 7351 ft 259 kts 297°
2026-05-05 12:18 47.90307 12.77678 7556 ft 275 kts 298°
2026-05-05 12:18 47.91276 12.75155 7845 ft 285 kts 298°
2026-05-05 12:18 47.92264 12.72575 8341 ft 288 kts 297°
2026-05-05 12:19 47.93256 12.69963 8995 ft 290 kts 297°
2026-05-05 12:19 47.94247 12.67330 9710 ft 292 kts 296°
2026-05-05 12:19 47.95249 12.64656 10229 ft 302 kts 296°
2026-05-05 12:19 47.96295 12.61848 10529 ft 317 kts 296°
2026-05-05 12:20 47.97262 12.58841 10810 ft 326 kts 283°
2026-05-05 12:20 47.97377 12.55503 11283 ft 324 kts 261°
2026-05-05 12:20 47.97046 12.52170 11785 ft 326 kts 259°
2026-05-05 12:20 47.96697 12.48821 12300 ft 328 kts 258°
2026-05-05 12:21 47.96322 12.45458 12837 ft 329 kts 258°
2026-05-05 12:21 47.95946 12.42075 13346 ft 331 kts 259°
2026-05-05 12:21 47.95580 12.38669 13794 ft 333 kts 259°
2026-05-05 12:21 47.95227 12.35239 14189 ft 336 kts 259°
2026-05-05 12:22 47.94900 12.31779 14563 ft 338 kts 260°
2026-05-05 12:22 47.94578 12.28292 14929 ft 341 kts 260°
2026-05-05 12:22 47.94250 12.24785 15313 ft 342 kts 259°
2026-05-05 12:22 47.93908 12.21260 15679 ft 345 kts 259°
2026-05-05 12:23 47.93565 12.17710 16049 ft 347 kts 259°
2026-05-05 12:23 47.93218 12.14133 16404 ft 349 kts 259°
2026-05-05 12:23 47.92873 12.10539 16766 ft 351 kts 259°
2026-05-05 12:23 47.92527 12.06917 17128 ft 354 kts 259°
2026-05-05 12:24 47.92186 12.03277 17484 ft 356 kts 259°
2026-05-05 12:24 47.91827 11.99616 17840 ft 358 kts 258°
2026-05-05 12:24 47.91455 11.95941 18177 ft 360 kts 258°
2026-05-05 12:24 47.91082 11.92294 18490 ft 361 kts 258°
2026-05-05 12:25 47.90702 11.88580 18787 ft 364 kts 258°
2026-05-05 12:25 47.90345 11.84836 19101 ft 365 kts 258°
2026-05-05 12:25 47.89975 11.81084 19414 ft 367 kts 258°
2026-05-05 12:25 47.89593 11.77312 19715 ft 369 kts 258°
2026-05-05 12:26 47.89225 11.73526 20013 ft 370 kts 258°
2026-05-05 12:26 47.88846 11.69725 20315 ft 372 kts 258°
2026-05-05 12:26 47.88458 11.65908 20617 ft 373 kts 258°
2026-05-05 12:26 47.88085 11.62072 20905 ft 375 kts 258°
2026-05-05 12:27 47.87693 11.58226 21207 ft 376 kts 258°
2026-05-05 12:27 47.87296 11.54364 21502 ft 378 kts 258°
2026-05-05 12:27 47.86912 11.50483 21797 ft 380 kts 258°
2026-05-05 12:27 47.86515 11.46584 22090 ft 381 kts 258°
2026-05-05 12:28 47.86113 11.42672 22393 ft 382 kts 258°
2026-05-05 12:28 47.85718 11.38756 22676 ft 384 kts 258°
2026-05-05 12:28 47.85323 11.34821 22948 ft 385 kts 258°
2026-05-05 12:28 47.84924 11.30869 23215 ft 387 kts 258°
2026-05-05 12:29 47.84526 11.26902 23460 ft 388 kts 258°
2026-05-05 12:29 47.83913 11.21085 23717 ft 384 kts 257°
2026-05-05 12:29 47.83085 11.13223 23830 ft 384 kts 258°
2026-05-05 12:29 47.82238 11.05345 23848 ft 386 kts 257°
2026-05-05 12:30 47.81396 10.97431 23866 ft 390 kts 257°
2026-05-05 12:30 47.80531 10.89479 23828 ft 391 kts 257°
2026-05-05 12:30 47.79665 10.81477 23837 ft 391 kts 257°
2026-05-05 12:30 47.78784 10.73486 23844 ft 392 kts 257°
2026-05-05 12:31 47.77921 10.65501 23849 ft 392 kts 257°
2026-05-05 12:31 47.77469 10.61441 23852 ft 392 kts 257°
2026-05-05 12:31 47.77019 10.57441 23865 ft 392 kts 257°
2026-05-05 12:31 47.76571 10.53441 23854 ft 393 kts 257°
2026-05-05 12:32 47.76276 10.50815 23853 ft 393 kts 257°
2026-05-05 12:32 47.75828 10.46816 23855 ft 392 kts 257°
2026-05-05 12:32 47.75380 10.42815 23848 ft 393 kts 257°
2026-05-05 12:32 47.74929 10.38814 23851 ft 392 kts 257°
2026-05-05 12:33 47.74558 10.34824 23848 ft 392 kts 261°
2026-05-05 12:33 47.74365 10.30859 23861 ft 394 kts 263°
2026-05-05 12:33 47.74253 10.26788 23861 ft 395 kts 264°
2026-05-05 12:33 47.74168 10.22716 23859 ft 395 kts 265°
2026-05-05 12:34 47.74103 10.18641 23861 ft 395 kts 264°
2026-05-05 12:34 47.74037 10.14556 23872 ft 395 kts 265°
2026-05-05 12:34 47.73970 10.10489 23887 ft 396 kts 265°
2026-05-05 12:34 47.73894 10.06397 23881 ft 396 kts 264°
2026-05-05 12:35 47.73793 10.02303 23882 ft 397 kts 264°
2026-05-05 12:35 47.73682 9.98214 23879 ft 396 kts 264°
2026-05-05 12:35 47.73565 9.94129 23878 ft 396 kts 264°
2026-05-05 12:35 47.73474 9.90084 23872 ft 396 kts 264°
2026-05-05 12:36 47.73376 9.85958 23875 ft 396 kts 264°
2026-05-05 12:36 47.73261 9.81876 23874 ft 396 kts 264°
2026-05-05 12:36 47.73144 9.77786 23869 ft 396 kts 264°
2026-05-05 12:36 47.73047 9.73694 23862 ft 396 kts 264°
2026-05-05 12:37 47.72941 9.69610 23873 ft 396 kts 264°
2026-05-05 12:37 47.72821 9.65520 23865 ft 397 kts 264°
2026-05-05 12:37 47.72699 9.61422 23863 ft 397 kts 264°
2026-05-05 12:37 47.72598 9.57325 23858 ft 397 kts 264°
2026-05-05 12:38 47.72477 9.53237 23853 ft 396 kts 264°
2026-05-05 12:38 47.72350 9.49150 23851 ft 396 kts 263°
2026-05-05 12:38 47.71864 9.45172 23863 ft 388 kts 246°
2026-05-05 12:38 47.70809 9.41489 23860 ft 387 kts 240°
2026-05-05 12:39 47.69480 9.38033 23872 ft 385 kts 233°
2026-05-05 12:39 47.67965 9.34850 23522 ft 381 kts 230°
2026-05-05 12:39 47.66319 9.31784 22785 ft 378 kts 228°
2026-05-05 12:39 47.64622 9.28777 22139 ft 372 kts 227°
2026-05-05 12:40 47.62964 9.25864 21544 ft 367 kts 227°
2026-05-05 12:40 47.61364 9.23045 20953 ft 362 kts 229°
2026-05-05 12:40 47.59982 9.19859 20264 ft 362 kts 242°
2026-05-05 12:40 47.59074 9.16387 19643 ft 361 kts 250°
2026-05-05 12:41 47.58415 9.12819 19004 ft 358 kts 254°
2026-05-05 12:41 47.57899 9.09225 18402 ft 355 kts 256°
2026-05-05 12:41 47.57478 9.05641 17748 ft 352 kts 261°
2026-05-05 12:41 47.57683 9.02047 17070 ft 354 kts 283°
2026-05-05 12:42 47.58530 8.98631 16434 ft 352 kts 289°
2026-05-05 12:42 47.59457 8.95302 15796 ft 348 kts 290°
2026-05-05 12:42 47.60404 8.92041 15189 ft 343 kts 290°
2026-05-05 12:42 47.61345 8.88802 14597 ft 339 kts 290°
2026-05-05 12:43 47.62262 8.85606 14022 ft 335 kts 290°
2026-05-05 12:43 47.63100 8.82459 13408 ft 329 kts 283°
2026-05-05 12:43 47.63215 8.79113 12719 ft 320 kts 255°
2026-05-05 12:43 47.62481 8.76084 12072 ft 315 kts 245°
2026-05-05 12:44 47.61614 8.73070 11402 ft 312 kts 245°
2026-05-05 12:44 47.60746 8.70139 10806 ft 309 kts 244°
2026-05-05 12:44 47.59875 8.67293 10380 ft 302 kts 244°
2026-05-05 12:44 47.59031 8.64531 10246 ft 286 kts 244°
2026-05-05 12:45 47.58299 8.61874 10130 ft 273 kts 253°
2026-05-05 12:45 47.58358 8.59124 9958 ft 272 kts 286°
2026-05-05 12:45 47.59436 8.56817 9586 ft 279 kts 315°
2026-05-05 12:45 47.60964 8.55035 9180 ft 279 kts 318°
2026-05-05 12:46 47.62499 8.53282 8808 ft 277 kts 319°
2026-05-05 12:46 47.64164 8.51845 8416 ft 279 kts 334°
2026-05-05 12:46 47.65838 8.50493 8109 ft 270 kts 313°
2026-05-05 12:46 47.67099 8.48513 8051 ft 260 kts 309°
2026-05-05 12:47 47.68338 8.46570 7808 ft 259 kts 310°
2026-05-05 12:47 47.69592 8.44665 7537 ft 257 kts 311°
2026-05-05 12:47 47.70857 8.42794 7306 ft 257 kts 312°
2026-05-05 12:47 47.72138 8.40944 7093 ft 256 kts 312°
2026-05-05 12:48 47.73413 8.39133 7021 ft 251 kts 309°
2026-05-05 12:48 47.74247 8.36941 6837 ft 243 kts 275°
2026-05-05 12:48 47.74020 8.34548 6726 ft 231 kts 239°
2026-05-05 12:48 47.73135 8.32645 6602 ft 223 kts 232°
2026-05-05 12:49 47.72164 8.30873 6419 ft 221 kts 229°
2026-05-05 12:49 47.71162 8.29165 6426 ft 215 kts 227°
2026-05-05 12:49 47.70028 8.27782 6295 ft 215 kts 201°
2026-05-05 12:49 47.68538 8.27732 5956 ft 219 kts 168°
2026-05-05 12:50 47.67166 8.28514 5735 ft 208 kts 157°
2026-05-05 12:50 47.65930 8.29618 5514 ft 208 kts 149°
2026-05-05 12:50 47.64793 8.30908 5234 ft 204 kts 145°
2026-05-05 12:50 47.63716 8.32291 4667 ft 208 kts 143°
2026-05-05 12:51 47.62662 8.33719 4369 ft 199 kts 141°
2026-05-05 12:51 47.61670 8.35090 4245 ft 191 kts 140°
2026-05-05 12:51 47.60737 8.36400 4197 ft 181 kts 140°
2026-05-05 12:51 47.59828 8.37672 4175 ft 178 kts 141°
2026-05-05 12:52 47.58931 8.38917 4188 ft 178 kts 141°
2026-05-05 12:52 47.58038 8.40140 4068 ft 177 kts 141°
2026-05-05 12:52 47.57124 8.41379 3823 ft 180 kts 140°
2026-05-05 12:52 47.56211 8.42632 3577 ft 178 kts 140°
2026-05-05 12:53 47.55309 8.43873 3349 ft 176 kts 139°
2026-05-05 12:53 47.54423 8.45097 3135 ft 172 kts 140°
2026-05-05 12:53 47.53589 8.46238 2858 ft 156 kts 141°
2026-05-05 12:53 47.52867 8.47237 2658 ft 134 kts 140°
2026-05-05 12:54 47.51581 8.48983 2379 ft 129 kts 140°
2026-05-05 12:54 47.50924 8.49899 2257 ft 129 kts 137°
2026-05-05 12:54 47.50276 8.50799 2078 ft 127 kts 140°
2026-05-05 12:55 47.49609 8.51702 1846 ft 129 kts 138°
2026-05-05 12:55 47.48966 8.52579 1645 ft 126 kts 138°
2026-05-05 12:55 47.48327 8.53447 1463 ft 121 kts 139°
2026-05-05 12:55 47.47762 8.54228 1407 ft 102 kts 137°
2026-05-05 12:56 47.47296 8.54855 1404 ft 81 kts 137°
2026-05-05 12:56 47.46919 8.55370 1404 ft 67 kts 137°
2026-05-05 12:56 47.46609 8.55793 1403 ft 56 kts 139°
2026-05-05 12:56 47.46315 8.55979 1404 ft 30 kts 167°
2026-05-05 12:57 47.46156 8.56001 1397 ft 19 kts 188°
2026-05-05 12:57 47.46069 8.55986 1397 ft 10 kts 186°
2026-05-05 12:57 47.46000 8.55975 1397 ft 9 kts 186°
2026-05-05 12:57 47.45940 8.55957 1402 ft 8 kts 195°
2026-05-05 12:58 47.45893 8.55930 1403 ft 7 kts 202°
2026-05-05 12:58 47.45847 8.55906 1400 ft 8 kts 199°
2026-05-05 12:58 47.45790 8.55880 1401 ft 9 kts 188°
2026-05-05 12:58 47.45716 8.55868 1400 ft 12 kts 186°
2026-05-05 12:59 47.45642 8.55857 1397 ft 11 kts 186°
2026-05-05 12:59 47.45567 8.55845 1397 ft 9 kts 186°
2026-05-05 12:59 47.45543 8.55841 1397 ft 0 kts 186°
2026-05-05 13:00 47.45542 8.55841 1397 ft 0 kts 186°
2026-05-05 13:00 47.45516 8.55831 1399 ft 6 kts 217°
2026-05-05 13:01 47.45551 8.55688 1397 ft 4 kts
2026-05-05 13:01 47.45575 8.55691 1397 ft 3 kts
2026-05-05 13:01 47.45590 8.55694 1397 ft 1 kts
2026-05-05 13:01 47.45593 8.55694 1397 ft 0 kts